createdAt,value
2022-08-07T00:00:03.541Z,121.29
2022-08-07T00:01:43.240Z,122.08
2022-08-07T00:02:41.129Z,122.35
2022-08-07T00:03:10.121Z,121.91
2022-08-07T00:04:03.394Z,122.53
2022-08-07T00:05:04.269Z,122.17
2022-08-07T00:06:02.610Z,120.85
2022-08-07T00:07:05.175Z,122.35
2022-08-07T00:08:10.919Z,120.59
2022-08-07T00:09:16.428Z,120.68
2022-08-07T00:10:26.598Z,122.53
2022-08-07T00:11:06.355Z,120.68
2022-08-07T00:12:02.595Z,121.64
2022-08-07T00:13:17.421Z,122.71
2022-08-07T00:14:09.900Z,122.35
2022-08-07T00:15:02.803Z,122.62
2022-08-07T00:16:03.617Z,122.53
2022-08-07T00:17:03.639Z,120.42
2022-08-07T00:18:03.547Z,122.89
2022-08-07T00:19:03.595Z,122.89
2022-08-07T00:20:09.046Z,121.11
2022-08-07T00:21:55.475Z,121.03
2022-08-07T00:22:04.366Z,120.94
2022-08-07T00:23:02.751Z,122.53
2022-08-07T00:24:10.206Z,123.07
2022-08-07T00:25:11.138Z,123.25
2022-08-07T00:26:13.047Z,121.64
2022-08-07T00:27:07.450Z,121.64
2022-08-07T00:28:04.198Z,121.73
2022-08-07T00:29:08.606Z,123.34
2022-08-07T00:30:04.135Z,122.98
2022-08-07T00:31:12.819Z,123.25
2022-08-07T00:32:03.840Z,121.64
2022-08-07T00:33:02.828Z,121.29
2022-08-07T00:34:02.215Z,123.98
2022-08-07T00:35:02.192Z,121.82
2022-08-07T00:36:02.239Z,122.62
2022-08-07T00:37:11.746Z,123.98
2022-08-07T00:38:02.998Z,123.98
2022-08-07T00:39:03.507Z,123.89
2022-08-07T00:40:03.287Z,122.89
2022-08-07T00:41:02.102Z,122.17
2022-08-07T00:42:08.919Z,122.17
2022-08-07T00:43:02.416Z,122.80
2022-08-07T00:44:02.976Z,123.07
2022-08-07T00:45:02.185Z,123.98
2022-08-07T00:46:03.553Z,124.17
2022-08-07T00:48:05.156Z,121.82
2022-08-07T00:48:11.121Z,122.17
2022-08-07T00:49:03.686Z,124.44
2022-08-07T00:50:19.249Z,122.17
2022-08-07T00:51:03.998Z,124.26
2022-08-07T00:52:02.324Z,122.62
2022-08-07T00:53:02.243Z,124.44
2022-08-07T00:54:08.447Z,122.17
2022-08-07T00:55:04.687Z,124.07
2022-08-07T00:56:04.459Z,123.07
2022-08-07T00:57:03.510Z,122.62
2022-08-07T00:58:02.667Z,124.72
2022-08-07T00:59:02.064Z,123.53
2022-08-07T01:00:08.521Z,122.35
2022-08-07T01:01:03.107Z,122.98
2022-08-07T01:02:01.913Z,122.44
2022-08-07T01:03:02.910Z,122.17
2022-08-07T01:04:08.514Z,122.71
2022-08-07T01:05:19.337Z,123.25
2022-08-07T01:06:04.425Z,122.53
2022-08-07T01:07:01.996Z,122.71
2022-08-07T01:08:02.888Z,122.89
2022-08-07T01:09:02.783Z,122.89
2022-08-07T01:10:11.243Z,122.71
2022-08-07T01:12:04.769Z,122.98
2022-08-07T01:12:10.212Z,122.89
2022-08-07T01:13:03.539Z,123.62
2022-08-07T01:14:03.039Z,123.80
2022-08-07T01:15:35.896Z,198.21
2022-08-07T01:16:34.184Z,162.94
2022-08-07T01:17:32.874Z,147.84
2022-08-07T01:18:32.512Z,139.24
2022-08-07T01:19:32.462Z,134.32
2022-08-07T01:20:42.985Z,130.96
2022-08-07T01:21:33.297Z,129.44
2022-08-07T01:22:31.919Z,128.55
2022-08-07T01:23:40.089Z,127.86
2022-08-07T01:24:32.694Z,127.38
2022-08-07T01:25:53.515Z,126.80
2022-08-07T01:26:34.249Z,126.42
2022-08-07T01:27:32.322Z,126.13
2022-08-07T01:28:32.330Z,126.22
2022-08-07T01:29:33.830Z,126.13
2022-08-07T01:30:31.588Z,125.85
2022-08-07T01:31:42.589Z,125.28
2022-08-07T01:32:33.100Z,125.66
2022-08-07T01:33:55.076Z,126.03
2022-08-07T01:34:33.707Z,125.37
2022-08-07T01:35:52.945Z,125.37
2022-08-07T01:36:40.697Z,125.09
2022-08-07T01:37:33.810Z,125.28
2022-08-07T01:38:31.894Z,125.66
2022-08-07T01:39:40.803Z,126.13
2022-08-07T01:40:33.238Z,126.13
2022-08-07T01:41:32.607Z,125.66
2022-08-07T01:42:57.396Z,125.94
2022-08-07T01:43:34.513Z,126.42
2022-08-07T01:44:32.872Z,125.66
2022-08-07T01:45:37.233Z,125.66
2022-08-07T01:46:33.772Z,125.85
2022-08-07T01:48:19.277Z,125.09
2022-08-07T01:48:41.116Z,126.22
2022-08-07T01:49:31.885Z,125.94
2022-08-07T01:50:32.449Z,126.70
2022-08-07T01:52:02.471Z,126.32
2022-08-07T01:52:34.510Z,125.94
2022-08-07T01:54:09.086Z,125.85
2022-08-07T01:54:39.369Z,126.51
2022-08-07T01:55:33.615Z,126.51
2022-08-07T01:56:36.351Z,126.22
2022-08-07T01:58:00.997Z,126.22
2022-08-07T01:58:34.175Z,126.22
2022-08-07T01:59:37.707Z,126.61
2022-08-07T02:00:32.660Z,126.03
2022-08-07T02:02:00.013Z,126.32
2022-08-07T02:03:11.918Z,126.22
2022-08-07T02:03:42.904Z,126.61
2022-08-07T02:04:39.919Z,125.85
2022-08-07T02:05:48.169Z,126.61
2022-08-07T02:06:32.626Z,126.61
2022-08-07T02:07:44.960Z,126.99
2022-08-07T02:08:32.780Z,126.89
2022-08-07T02:09:52.806Z,126.03
2022-08-07T02:10:42.169Z,126.32
2022-08-07T02:12:04.708Z,126.99
2022-08-07T02:12:33.970Z,126.99
2022-08-07T02:13:57.917Z,126.13
2022-08-07T02:14:36.404Z,126.61
2022-08-07T02:15:34.130Z,126.42
2022-08-07T02:16:38.362Z,127.09
2022-08-07T02:17:34.120Z,126.80
2022-08-07T02:18:30.971Z,126.61
2022-08-07T02:20:06.737Z,126.89
2022-08-07T02:20:31.952Z,126.80
2022-08-07T02:21:56.090Z,126.80
2022-08-07T02:22:33.420Z,127.09
2022-08-07T02:23:35.779Z,127.18
2022-08-07T02:24:31.925Z,127.47
2022-08-07T02:26:11.438Z,127.28
2022-08-07T02:26:34.495Z,127.28
2022-08-07T02:27:41.163Z,127.57
2022-08-07T02:28:32.146Z,127.57
2022-08-07T02:29:31.263Z,127.86
2022-08-07T02:30:32.167Z,127.38
2022-08-07T02:31:30.794Z,126.99
2022-08-07T02:32:39.541Z,127.86
2022-08-07T02:33:42.027Z,128.16
2022-08-07T02:34:32.476Z,126.99
2022-08-07T02:36:30.865Z,127.96
2022-08-07T02:36:32.906Z,127.09
2022-08-07T02:37:34.276Z,128.16
2022-08-07T02:38:38.500Z,127.86
2022-08-07T02:39:42.586Z,127.57
2022-08-07T02:40:35.318Z,128.06
2022-08-07T02:41:33.478Z,127.76
2022-08-07T02:42:32.377Z,128.06
2022-08-07T02:43:39.462Z,128.06
2022-08-07T02:44:48.361Z,127.86
2022-08-07T02:46:00.918Z,128.45
2022-08-07T02:46:32.594Z,127.76
2022-08-07T02:47:45.194Z,127.67
2022-08-07T02:48:38.498Z,128.16
2022-08-07T02:49:58.312Z,128.25
2022-08-07T02:50:32.606Z,128.45
2022-08-07T02:51:42.536Z,128.25
2022-08-07T02:52:32.930Z,127.86
2022-08-07T02:53:30.473Z,127.76
2022-08-07T02:54:30.735Z,127.96
2022-08-07T02:56:03.472Z,128.75
2022-08-07T02:56:33.161Z,128.16
2022-08-07T02:57:34.094Z,128.55
2022-08-07T02:58:33.257Z,127.96
2022-08-07T02:59:30.382Z,127.96
2022-08-07T03:00:39.118Z,128.45
2022-08-07T03:01:36.304Z,128.25
2022-08-07T03:02:32.887Z,128.06
2022-08-07T03:03:50.192Z,128.35
2022-08-07T03:04:32.285Z,128.45
2022-08-07T03:05:35.718Z,128.35
2022-08-07T03:06:39.247Z,128.65
2022-08-07T03:08:05.239Z,128.95
2022-08-07T03:08:31.381Z,128.25
2022-08-07T03:09:42.448Z,128.25
2022-08-07T03:10:32.098Z,128.45
2022-08-07T03:11:32.638Z,128.75
2022-08-07T03:12:36.613Z,128.65
2022-08-07T03:13:30.610Z,128.95
2022-08-07T03:14:31.695Z,128.65
2022-08-07T03:15:55.774Z,128.75
2022-08-07T03:16:31.252Z,128.45
2022-08-07T03:17:52.785Z,128.75
2022-08-07T03:18:34.785Z,128.85
2022-08-07T03:19:36.784Z,128.75
2022-08-07T03:20:31.985Z,128.85
2022-08-07T03:21:33.153Z,129.95
2022-08-07T03:22:36.629Z,128.85
2022-08-07T03:23:33.619Z,128.55
2022-08-07T03:24:32.283Z,129.44
2022-08-07T03:25:40.483Z,129.64
2022-08-07T03:26:31.685Z,128.95
2022-08-07T03:27:59.574Z,128.75
2022-08-07T03:28:39.527Z,129.14
2022-08-07T03:29:36.629Z,129.04
2022-08-07T03:30:30.221Z,129.24
2022-08-07T03:31:43.489Z,129.44
2022-08-07T03:32:32.769Z,129.74
2022-08-07T03:33:40.049Z,128.55
2022-08-07T03:34:30.953Z,129.64
2022-08-07T03:35:43.610Z,129.34
2022-08-07T03:36:31.579Z,128.85
2022-08-07T03:37:32.712Z,128.95
2022-08-07T03:38:38.713Z,129.24
2022-08-07T03:40:00.045Z,128.95
2022-08-07T03:40:36.154Z,129.44
2022-08-07T03:41:42.165Z,129.54
2022-08-07T03:42:37.663Z,129.14
2022-08-07T03:43:32.439Z,129.44
2022-08-07T03:44:36.141Z,129.84
2022-08-07T03:45:31.510Z,129.34
2022-08-07T03:46:29.855Z,128.45
2022-08-07T03:47:47.773Z,129.44
2022-08-07T03:48:31.281Z,129.14
2022-08-07T03:49:36.392Z,129.34
2022-08-07T03:50:30.031Z,129.04
2022-08-07T03:51:30.738Z,129.04
2022-08-07T03:52:30.820Z,129.04
2022-08-07T03:54:01.952Z,129.14
2022-08-07T03:54:54.568Z,129.04
2022-08-07T03:55:57.467Z,128.65
2022-08-07T03:56:33.472Z,129.34
2022-08-07T03:58:34.343Z,129.04
2022-08-07T03:59:04.868Z,129.24
2022-08-07T03:59:31.559Z,128.95
2022-08-07T04:00:37.285Z,129.14
2022-08-07T04:01:32.258Z,128.75
2022-08-07T04:02:29.646Z,128.95
2022-08-07T04:03:29.831Z,128.55
2022-08-07T04:04:32.656Z,128.95
2022-08-07T04:05:40.272Z,129.04
2022-08-07T04:06:41.525Z,129.34
2022-08-07T04:07:36.277Z,128.95
2022-08-07T04:08:32.139Z,129.14
2022-08-07T04:09:45.160Z,128.75
2022-08-07T04:10:32.136Z,129.84
2022-08-07T04:12:24.944Z,128.75
2022-08-07T04:12:36.825Z,128.75
2022-08-07T04:14:10.900Z,128.75
2022-08-07T04:14:37.643Z,128.85
2022-08-07T04:15:31.361Z,129.14
2022-08-07T04:16:31.337Z,128.95
2022-08-07T04:18:19.664Z,128.95
2022-08-07T04:18:56.633Z,128.75
2022-08-07T04:19:50.969Z,128.95
2022-08-07T04:20:31.620Z,129.44
2022-08-07T04:21:35.730Z,128.75
2022-08-07T04:22:35.779Z,128.75
2022-08-07T04:23:43.410Z,128.75
2022-08-07T04:24:34.292Z,128.45
2022-08-07T04:25:35.893Z,128.25
2022-08-07T04:26:31.091Z,128.16
2022-08-07T04:27:36.249Z,128.16
2022-08-07T04:28:37.960Z,127.96
2022-08-07T04:29:30.475Z,127.96
2022-08-07T04:30:35.848Z,128.35
2022-08-07T04:31:38.863Z,128.65
2022-08-07T04:32:34.568Z,127.38
2022-08-07T04:33:35.540Z,127.96
2022-08-07T04:34:33.237Z,127.96
2022-08-07T04:35:35.261Z,127.18
2022-08-07T04:36:30.755Z,126.99
2022-08-07T04:37:29.208Z,127.47
2022-08-07T04:38:30.851Z,127.18
2022-08-07T04:39:35.590Z,127.18
2022-08-07T04:40:30.008Z,126.70
2022-08-07T04:41:29.099Z,127.57
2022-08-07T04:42:30.685Z,126.99
2022-08-07T04:44:11.301Z,127.28
2022-08-07T04:44:36.289Z,127.38
2022-08-07T04:45:57.234Z,126.61
2022-08-07T04:46:34.669Z,126.61
2022-08-07T04:48:01.600Z,126.61
2022-08-07T04:48:31.774Z,126.99
2022-08-07T04:49:29.276Z,126.22
2022-08-07T04:50:36.992Z,126.03
2022-08-07T04:51:28.974Z,125.85
2022-08-07T04:52:29.918Z,126.22
2022-08-07T04:54:01.866Z,126.61
2022-08-07T04:54:30.425Z,125.94
2022-08-07T04:58:13.248Z,125.94
2022-08-07T04:58:15.845Z,125.85
2022-08-07T04:58:27.513Z,126.13
2022-08-07T04:58:49.587Z,125.75
2022-08-07T05:00:14.506Z,125.09
2022-08-07T05:00:30.811Z,125.47
2022-08-07T05:01:29.925Z,125.66
2022-08-07T05:02:35.071Z,125.28
2022-08-07T05:04:01.102Z,124.72
2022-08-07T05:04:30.860Z,124.54
2022-08-07T05:05:52.764Z,124.54
2022-08-07T05:06:29.750Z,123.98
2022-08-07T05:07:48.248Z,123.98
2022-08-07T05:08:59.915Z,124.17
2022-08-07T05:09:45.430Z,123.98
2022-08-07T05:10:36.530Z,124.07
2022-08-07T05:11:57.923Z,123.71
2022-08-07T05:12:30.518Z,123.62
2022-08-07T05:14:53.516Z,122.80
2022-08-07T05:14:54.299Z,122.98
2022-08-07T05:15:29.959Z,122.08
2022-08-07T05:16:29.592Z,122.98
2022-08-07T05:17:50.793Z,122.17
2022-08-07T05:18:29.797Z,122.80
2022-08-07T05:19:44.726Z,123.89
2022-08-07T05:20:34.144Z,122.00
2022-08-07T05:22:00.805Z,122.26
2022-08-07T05:22:30.820Z,121.73
2022-08-07T05:23:30.061Z,122.08
2022-08-07T05:24:30.401Z,121.64
2022-08-07T05:25:54.424Z,123.16
2022-08-07T05:26:30.262Z,122.62
2022-08-07T05:28:02.910Z,122.71
2022-08-07T05:28:29.558Z,121.64
2022-08-07T05:29:38.831Z,120.94
2022-08-07T05:30:33.031Z,121.73
2022-08-07T05:31:37.693Z,121.20
2022-08-07T05:32:28.481Z,121.46
2022-08-07T05:33:28.450Z,120.59
2022-08-07T05:34:28.401Z,121.82
2022-08-07T05:35:33.572Z,121.03
2022-08-07T05:36:39.165Z,121.73
2022-08-07T05:37:40.897Z,120.59
2022-08-07T05:39:00.908Z,122.26
2022-08-07T05:40:13.674Z,121.91
2022-08-07T05:40:29.326Z,121.11
2022-08-07T05:42:01.689Z,120.33
2022-08-07T05:42:36.845Z,120.94
2022-08-07T05:43:50.071Z,120.68
2022-08-07T05:44:30.483Z,120.50
2022-08-07T05:45:47.633Z,120.42
2022-08-07T05:46:29.768Z,119.56
2022-08-07T05:47:38.483Z,120.24
2022-08-07T05:48:29.173Z,121.46
2022-08-07T05:49:40.552Z,120.68
2022-08-07T05:50:29.785Z,120.59
2022-08-07T05:51:31.561Z,120.50
2022-08-07T05:52:29.918Z,120.24
2022-08-07T05:54:09.541Z,119.99
2022-08-07T05:54:31.026Z,120.07
2022-08-07T05:56:03.366Z,119.90
2022-08-07T05:56:30.137Z,119.90
2022-08-07T05:57:30.128Z,119.64
2022-08-07T05:58:37.064Z,120.16
2022-08-07T05:59:28.311Z,118.71
2022-08-07T06:00:29.590Z,119.22
2022-08-07T06:01:35.831Z,119.99
2022-08-07T06:02:30.677Z,119.30
2022-08-07T06:03:34.256Z,118.96
2022-08-07T06:04:36.371Z,118.96
2022-08-07T06:05:28.420Z,118.54
2022-08-07T06:06:30.026Z,118.79
2022-08-07T06:08:13.438Z,119.22
2022-08-07T06:08:30.631Z,118.12
2022-08-07T06:10:04.457Z,118.63
2022-08-07T06:10:36.212Z,118.71
2022-08-07T06:11:27.969Z,118.21
2022-08-07T06:12:33.154Z,117.96
2022-08-07T06:14:10.328Z,117.71
2022-08-07T06:14:30.429Z,118.37
2022-08-07T06:15:39.479Z,118.21
2022-08-07T06:16:35.676Z,117.38
2022-08-07T06:17:32.166Z,117.96
2022-08-07T06:18:29.321Z,116.72
2022-08-07T06:19:58.338Z,117.71
2022-08-07T06:20:49.350Z,117.87
2022-08-07T06:22:16.361Z,116.32
2022-08-07T06:22:39.099Z,117.38
2022-08-07T06:24:32.562Z,117.54
2022-08-07T06:24:46.080Z,117.46
2022-08-07T06:25:28.863Z,116.81
2022-08-07T06:26:29.550Z,116.81
2022-08-07T06:27:54.467Z,116.08
2022-08-07T06:28:29.649Z,116.48
2022-08-07T06:29:27.978Z,116.40
2022-08-07T06:30:36.133Z,115.92
2022-08-07T06:31:46.774Z,115.76
2022-08-07T06:32:29.296Z,115.76
2022-08-07T06:33:35.157Z,115.28
2022-08-07T06:34:29.800Z,116.08
2022-08-07T06:35:38.970Z,116.00
2022-08-07T06:36:35.596Z,115.12
2022-08-07T06:37:44.123Z,115.20
2022-08-07T06:38:36.489Z,114.49
2022-08-07T06:40:13.135Z,115.60
2022-08-07T06:40:34.041Z,115.44
2022-08-07T06:41:47.639Z,115.28
2022-08-07T06:42:34.933Z,114.65
2022-08-07T06:43:39.619Z,114.26
2022-08-07T06:44:36.806Z,114.49
2022-08-07T06:45:27.534Z,114.26
2022-08-07T06:46:35.089Z,114.49
2022-08-07T06:47:38.674Z,113.71
2022-08-07T06:48:29.155Z,114.96
2022-08-07T06:49:27.362Z,113.40
2022-08-07T06:50:36.093Z,114.49
2022-08-07T06:51:33.398Z,113.94
2022-08-07T06:52:31.884Z,113.71
2022-08-07T06:55:27.172Z,112.79
2022-08-07T06:55:31.952Z,112.87
2022-08-07T06:55:53.583Z,113.64
2022-08-07T06:56:35.603Z,112.95
2022-08-07T06:57:43.446Z,112.57
2022-08-07T06:58:28.955Z,112.42
2022-08-07T07:00:12.602Z,111.82
2022-08-07T07:00:34.605Z,112.49
2022-08-07T07:01:33.150Z,112.04
2022-08-07T07:02:48.924Z,112.04
2022-08-07T07:03:48.942Z,111.74
2022-08-07T07:04:32.996Z,111.59
2022-08-07T07:06:03.376Z,111.59
2022-08-07T07:06:30.465Z,111.96
2022-08-07T07:07:59.670Z,110.56
2022-08-07T07:08:34.927Z,111.22
2022-08-07T07:09:30.934Z,111.44
2022-08-07T07:10:27.387Z,111.59
2022-08-07T07:12:10.059Z,111.00
2022-08-07T07:12:33.408Z,111.00
2022-08-07T07:13:56.396Z,110.42
2022-08-07T07:14:30.378Z,109.98
2022-08-07T07:15:32.528Z,110.20
2022-08-07T07:16:30.264Z,110.42
2022-08-07T07:17:28.863Z,110.12
2022-08-07T07:18:46.855Z,109.84
2022-08-07T07:19:56.893Z,110.12
2022-08-07T07:20:28.544Z,110.27
2022-08-07T07:21:40.398Z,110.27
2022-08-07T07:22:35.837Z,110.05
2022-08-07T07:24:08.734Z,109.98
2022-08-07T07:24:34.236Z,109.40
2022-08-07T07:26:33.964Z,109.48
2022-08-07T07:26:34.426Z,109.33
2022-08-07T07:27:35.792Z,109.33
2022-08-07T07:28:42.261Z,108.41
2022-08-07T07:29:56.636Z,108.98
2022-08-07T07:30:38.091Z,108.55
2022-08-07T07:31:30.467Z,109.05
2022-08-07T07:32:28.474Z,108.55
2022-08-07T07:33:26.820Z,108.55
2022-08-07T07:34:33.572Z,107.58
2022-08-07T07:35:27.859Z,108.55
2022-08-07T07:36:32.894Z,108.13
2022-08-07T07:37:47.140Z,107.99
2022-08-07T07:38:27.884Z,108.13
2022-08-07T07:39:35.857Z,107.86
2022-08-07T07:40:28.631Z,107.65
2022-08-07T07:41:50.463Z,107.65
2022-08-07T07:42:32.513Z,107.58
2022-08-07T07:43:48.162Z,107.79
2022-08-07T07:44:34.322Z,107.58
2022-08-07T07:46:39.754Z,107.37
2022-08-07T07:46:39.960Z,107.51
2022-08-07T07:47:28.727Z,107.17
2022-08-07T07:48:35.741Z,107.72
2022-08-07T07:50:35.770Z,107.03
2022-08-07T07:50:40.145Z,107.03
2022-08-07T07:51:27.119Z,107.03
2022-08-07T07:52:27.876Z,106.96
2022-08-07T07:53:27.945Z,106.55
2022-08-07T07:54:29.186Z,106.35
2022-08-07T07:55:27.736Z,106.35
2022-08-07T07:56:35.619Z,106.62
2022-08-07T07:57:52.191Z,106.15
2022-08-07T07:58:27.962Z,106.15
2022-08-07T07:59:51.628Z,106.35
2022-08-07T08:00:29.643Z,106.48
2022-08-07T08:02:03.270Z,106.15
2022-08-07T08:03:16.678Z,173.40
2022-08-07T08:04:12.529Z,141.35
2022-08-07T08:05:14.155Z,126.99
2022-08-07T08:06:13.131Z,119.64
2022-08-07T08:07:19.996Z,115.92
2022-08-07T08:08:32.311Z,112.49
2022-08-07T08:09:12.494Z,110.20
2022-08-07T08:10:14.935Z,109.48
2022-08-07T08:11:16.317Z,108.41
2022-08-07T08:12:12.786Z,107.79
2022-08-07T08:13:18.952Z,107.37
2022-08-07T08:14:12.457Z,106.89
2022-08-07T08:15:11.147Z,106.28
2022-08-07T08:16:12.683Z,105.81
2022-08-07T08:17:32.462Z,105.41
2022-08-07T08:18:55.859Z,174.30
2022-08-07T08:20:17.859Z,141.71
2022-08-07T08:20:58.005Z,127.28
2022-08-07T08:22:03.353Z,119.22
2022-08-07T08:22:57.363Z,114.73
2022-08-07T08:24:02.091Z,111.82
2022-08-07T08:25:04.480Z,109.91
2022-08-07T08:25:56.826Z,108.62
2022-08-07T08:26:56.127Z,107.65
2022-08-07T08:27:56.226Z,106.96
2022-08-07T08:28:55.834Z,105.68
2022-08-07T08:30:03.815Z,105.88
2022-08-07T08:30:56.141Z,105.28
2022-08-07T08:32:04.764Z,105.35
2022-08-07T08:32:56.741Z,105.01
2022-08-07T08:33:57.843Z,104.36
2022-08-07T08:34:55.913Z,104.49
2022-08-07T08:36:02.159Z,104.56
2022-08-07T08:36:57.591Z,103.78
2022-08-07T08:38:00.448Z,104.23
2022-08-07T08:38:57.398Z,103.91
2022-08-07T08:39:58.722Z,103.65
2022-08-07T08:40:55.608Z,103.91
2022-08-07T08:42:02.032Z,103.14
2022-08-07T08:42:55.772Z,102.63
2022-08-07T08:43:59.302Z,102.82
2022-08-07T08:44:55.902Z,102.82
2022-08-07T08:46:00.633Z,102.45
2022-08-07T08:47:02.793Z,102.32
2022-08-07T08:47:56.636Z,102.51
2022-08-07T08:48:56.495Z,102.26
2022-08-07T08:50:05.178Z,101.89
2022-08-07T08:50:58.000Z,102.45
2022-08-07T08:52:14.128Z,101.70
2022-08-07T08:52:57.012Z,102.01
2022-08-07T08:53:56.600Z,101.95
2022-08-07T08:54:55.471Z,101.45
2022-08-07T08:55:58.320Z,101.76
2022-08-07T08:56:55.399Z,101.45
2022-08-07T08:58:02.752Z,101.45
2022-08-07T08:58:56.725Z,101.15
2022-08-07T08:59:57.180Z,100.96
2022-08-07T09:00:56.449Z,100.84
2022-08-07T09:01:59.581Z,100.66
2022-08-07T09:02:57.956Z,100.30
2022-08-07T09:04:03.041Z,100.24
2022-08-07T09:04:55.779Z,100.78
2022-08-07T09:05:55.550Z,100.60
2022-08-07T09:06:55.548Z,100.36
2022-08-07T09:08:02.581Z,100.36
2022-08-07T09:09:02.195Z,100.12
2022-08-07T09:09:57.893Z,99.64
2022-08-07T09:10:56.406Z,100.00
2022-08-07T09:12:02.791Z,99.70
2022-08-07T09:12:56.403Z,99.52
2022-08-07T09:14:01.881Z,99.46
2022-08-07T09:14:58.808Z,99.29
2022-08-07T09:16:24.390Z,99.05
2022-08-07T09:16:57.184Z,98.94
2022-08-07T09:17:59.376Z,98.82
2022-08-07T09:19:03.578Z,98.76
2022-08-07T09:20:01.824Z,98.18
2022-08-07T09:20:58.404Z,98.47
2022-08-07T09:22:22.374Z,98.47
2022-08-07T09:24:30.451Z,98.12
2022-08-07T09:24:31.056Z,98.36
2022-08-07T09:24:59.688Z,97.67
2022-08-07T09:25:56.079Z,97.55
2022-08-07T09:27:04.576Z,97.21
2022-08-07T09:28:01.306Z,96.93
2022-08-07T09:30:01.293Z,96.82
2022-08-07T09:30:06.433Z,96.32
2022-08-07T09:30:57.616Z,96.38
2022-08-07T09:31:56.235Z,96.26
2022-08-07T09:32:55.090Z,95.93
2022-08-07T09:33:57.910Z,96.43
2022-08-07T09:35:04.821Z,96.32
2022-08-07T09:36:05.103Z,96.10
2022-08-07T09:36:57.765Z,95.88
2022-08-07T09:37:55.013Z,96.26
2022-08-07T09:38:56.794Z,96.15
2022-08-07T09:39:57.976Z,95.33
2022-08-07T09:41:01.489Z,95.17
2022-08-07T09:42:05.891Z,94.85
2022-08-07T09:42:56.936Z,94.90
2022-08-07T09:44:05.569Z,94.74
2022-08-07T09:47:24.544Z,94.90
2022-08-07T09:47:37.257Z,94.37
2022-08-07T09:47:50.935Z,95.68
2022-08-07T09:48:02.898Z,94.10
2022-08-07T09:50:00.887Z,95.68
2022-08-07T09:50:01.045Z,94.10
2022-08-07T09:51:03.842Z,95.57
2022-08-07T09:52:16.211Z,95.57
2022-08-07T09:52:56.645Z,95.57
2022-08-07T09:53:59.260Z,95.46
2022-08-07T09:55:02.593Z,94.05
2022-08-07T09:56:03.534Z,95.36
2022-08-07T09:57:04.235Z,95.68
2022-08-07T09:57:55.464Z,95.25
2022-08-07T09:58:55.911Z,94.26
2022-08-07T10:00:00.564Z,95.68
2022-08-07T10:00:57.495Z,95.46
2022-08-07T10:02:02.477Z,94.05
2022-08-07T10:02:56.340Z,95.57
2022-08-07T10:04:06.048Z,95.46
2022-08-07T10:04:57.287Z,95.36
2022-08-07T10:06:00.855Z,95.14
2022-08-07T10:06:57.160Z,95.36
2022-08-07T10:08:01.506Z,95.03
2022-08-07T10:08:55.225Z,94.82
2022-08-07T10:10:00.863Z,95.03
2022-08-07T10:11:59.527Z,95.14
2022-08-07T10:12:03.308Z,94.60
2022-08-07T10:13:04.257Z,94.82
2022-08-07T10:14:01.878Z,94.82
2022-08-07T10:14:56.934Z,94.28
2022-08-07T10:15:54.620Z,94.28
2022-08-07T10:16:55.314Z,94.39
2022-08-07T10:18:02.803Z,94.07
2022-08-07T10:18:54.419Z,94.28
2022-08-07T10:19:54.374Z,93.75
2022-08-07T10:20:55.542Z,93.86
2022-08-07T10:22:14.399Z,93.55
2022-08-07T10:23:02.031Z,93.65
2022-08-07T10:24:04.877Z,93.44
2022-08-07T10:24:57.322Z,93.03
2022-08-07T10:25:54.506Z,93.34
2022-08-07T10:26:54.468Z,93.23
2022-08-07T10:27:55.984Z,93.23
2022-08-07T10:29:01.551Z,93.03
2022-08-07T10:29:54.501Z,93.44
2022-08-07T10:30:54.244Z,93.55
2022-08-07T10:31:54.197Z,93.44
2022-08-07T10:32:54.510Z,93.13
2022-08-07T10:34:06.525Z,93.86
2022-08-07T10:34:55.970Z,93.75
2022-08-07T10:35:57.188Z,93.65
2022-08-07T10:36:55.944Z,93.65
2022-08-07T10:38:15.533Z,93.96
2022-08-07T10:39:02.504Z,93.75
2022-08-07T10:40:02.578Z,93.86
2022-08-07T10:40:56.514Z,93.86
2022-08-07T10:42:00.456Z,93.96
2022-08-07T10:42:56.742Z,94.39
2022-08-07T10:43:55.078Z,93.86
2022-08-07T10:45:02.101Z,93.96
2022-08-07T10:45:57.996Z,93.96
2022-08-07T10:46:54.993Z,94.07
2022-08-07T10:47:56.674Z,94.07
2022-08-07T10:48:56.477Z,93.86
2022-08-07T10:50:00.474Z,93.86
2022-08-07T10:50:55.203Z,94.18
2022-08-07T10:52:01.710Z,93.86
2022-08-07T10:52:57.856Z,93.55
2022-08-07T10:53:58.505Z,94.07
2022-08-07T10:55:07.905Z,93.34
2022-08-07T10:55:56.296Z,93.44
2022-08-07T10:56:56.308Z,93.44
2022-08-07T10:57:56.351Z,93.44
2022-08-07T10:58:59.530Z,93.34
2022-08-07T11:00:01.945Z,93.44
2022-08-07T11:00:56.363Z,93.03
2022-08-07T11:02:05.529Z,93.03
2022-08-07T11:02:55.374Z,92.51
2022-08-07T11:04:05.410Z,93.34
2022-08-07T11:05:07.317Z,92.72
2022-08-07T11:05:55.466Z,92.61
2022-08-07T11:06:54.743Z,92.51
2022-08-07T11:07:58.604Z,92.31
2022-08-07T11:08:55.540Z,92.21
2022-08-07T11:10:09.922Z,91.70
2022-08-07T11:10:59.845Z,91.80
2022-08-07T11:11:53.967Z,91.70
2022-08-07T11:13:02.332Z,91.50
2022-08-07T11:14:43.717Z,91.00
2022-08-07T11:14:57.420Z,91.10
2022-08-07T11:16:01.440Z,90.71
2022-08-07T11:16:59.383Z,90.91
2022-08-07T11:17:55.080Z,90.71
2022-08-07T11:19:00.031Z,90.42
2022-08-07T11:19:54.509Z,89.93
2022-08-07T11:20:59.899Z,89.83
2022-08-07T11:21:54.599Z,89.45
2022-08-07T11:22:54.525Z,89.45
2022-08-07T11:23:53.783Z,88.97
2022-08-07T11:24:54.304Z,88.88
2022-08-07T11:26:06.330Z,88.69
2022-08-07T11:26:55.923Z,88.04
2022-08-07T11:28:02.628Z,87.95
2022-08-07T11:28:56.017Z,88.04
2022-08-07T11:30:10.425Z,87.40
2022-08-07T11:30:55.925Z,87.40
2022-08-07T11:32:00.078Z,86.76
2022-08-07T11:32:54.592Z,86.85
2022-08-07T11:33:59.634Z,86.58
2022-08-07T11:34:54.945Z,86.32
2022-08-07T11:35:59.713Z,86.40
2022-08-07T11:36:56.441Z,85.87
2022-08-07T11:38:10.419Z,85.78
2022-08-07T11:38:54.795Z,85.35
2022-08-07T11:39:59.220Z,85.61
2022-08-07T11:40:55.254Z,85.17
2022-08-07T11:42:00.251Z,84.83
2022-08-07T11:42:55.027Z,84.40
2022-08-07T11:44:11.001Z,84.49
2022-08-07T11:44:57.842Z,84.40
2022-08-07T11:45:54.290Z,84.23
2022-08-07T11:46:53.664Z,83.98
2022-08-07T11:47:56.417Z,83.73
2022-08-07T11:49:50.855Z,83.64
2022-08-07T11:50:30.569Z,83.56
2022-08-07T11:50:57.617Z,83.73
2022-08-07T11:51:54.292Z,83.73
2022-08-07T11:52:53.607Z,83.98
2022-08-07T11:54:01.399Z,83.48
2022-08-07T11:54:55.615Z,83.39
2022-08-07T11:56:15.682Z,83.14
2022-08-07T11:56:56.242Z,82.98
2022-08-07T11:58:00.717Z,83.06
2022-08-07T11:58:55.941Z,82.82
2022-08-07T12:00:11.593Z,82.57
2022-08-07T12:01:05.043Z,82.17
2022-08-07T12:02:00.646Z,82.57
2022-08-07T12:02:55.981Z,82.90
2022-08-07T12:03:54.133Z,81.61
2022-08-07T12:04:54.026Z,82.33
2022-08-07T12:05:53.961Z,81.68
2022-08-07T12:07:07.938Z,81.68
2022-08-07T12:07:59.595Z,81.92
2022-08-07T12:08:55.450Z,80.43
2022-08-07T12:09:55.101Z,81.61
2022-08-07T12:11:08.040Z,80.58
2022-08-07T12:12:10.725Z,80.74
2022-08-07T12:12:55.788Z,80.35
2022-08-07T12:13:53.310Z,80.35
2022-08-07T12:14:56.398Z,80.66
2022-08-07T12:16:06.068Z,80.35
2022-08-07T12:17:24.699Z,131.17
2022-08-07T12:18:29.842Z,106.75
2022-08-07T12:19:25.731Z,95.28
2022-08-07T12:20:30.067Z,92.21
2022-08-07T12:21:55.484Z,89.07
2022-08-07T12:22:38.592Z,87.03
2022-08-07T12:24:06.176Z,85.78
2022-08-07T12:24:52.498Z,85.00
2022-08-07T12:26:03.250Z,84.15
2022-08-07T12:26:29.996Z,83.89
2022-08-07T12:27:28.174Z,83.56
2022-08-07T12:28:31.934Z,83.39
2022-08-07T12:29:37.729Z,83.39
2022-08-07T12:30:27.136Z,82.98
2022-08-07T12:31:24.947Z,82.98
2022-08-07T12:32:25.576Z,82.98
2022-08-07T12:33:30.720Z,83.06
2022-08-07T12:34:33.166Z,82.90
2022-08-07T12:35:25.856Z,83.14
2022-08-07T12:36:33.298Z,83.23